createdAt,value
2023-05-02T00:03:56.316Z,99765.63
2023-05-02T00:08:58.426Z,99765.22
2023-05-02T00:14:00.572Z,99765.69
2023-05-02T00:19:02.210Z,99776.63
2023-05-02T00:24:04.231Z,99778.22
2023-05-02T00:29:05.935Z,99781.91
2023-05-02T00:34:07.778Z,99779.44
2023-05-02T00:39:09.812Z,99780.41
2023-05-02T00:44:11.447Z,99786.84
2023-05-02T00:49:13.093Z,99787.66
2023-05-02T00:54:15.037Z,99794.81
2023-05-02T00:59:17.858Z,99793.66
2023-05-02T01:04:25.668Z,99785.47
2023-05-02T01:09:59.430Z,99786.88
2023-05-02T01:15:07.764Z,99781.09
2023-05-02T01:20:14.424Z,99778.81
2023-05-02T01:25:30.408Z,99770.72
2023-05-02T01:30:36.546Z,99760.66
2023-05-02T01:35:38.861Z,99772.25
2023-05-02T01:40:44.805Z,99769.09
2023-05-02T01:45:50.778Z,99771.16
2023-05-02T01:50:54.754Z,99770.38
2023-05-02T01:55:59.574Z,99768.88
2023-05-02T02:01:01.796Z,99765.84
2023-05-02T02:06:04.921Z,99774.47
2023-05-02T02:11:11.884Z,99771.59
2023-05-02T02:16:15.053Z,99776.72
2023-05-02T02:21:19.587Z,99780.81
2023-05-02T02:26:22.632Z,99791.44
2023-05-02T02:31:25.855Z,99789.69
2023-05-02T02:36:42.949Z,99798.34
2023-05-02T02:42:05.444Z,99805.19
2023-05-02T02:47:18.885Z,99808.69
2023-05-02T02:52:56.080Z,99828.59
2023-05-02T02:58:09.899Z,99834.31
2023-05-02T03:03:14.322Z,99833.28
2023-05-02T03:08:16.135Z,99835.69
2023-05-02T03:13:18.013Z,99835.69
2023-05-02T03:18:22.225Z,99841.91
2023-05-02T03:23:28.795Z,99842.19
2023-05-02T03:28:30.722Z,99864.25
2023-05-02T03:33:33.691Z,99863.25
2023-05-02T03:38:35.742Z,99870.97
2023-05-02T03:43:41.332Z,99871.06
2023-05-02T03:48:43.165Z,99870.88
2023-05-02T03:53:46.455Z,99884.56
2023-05-02T03:58:48.734Z,99886.28
2023-05-02T04:03:54.843Z,99897.25
2023-05-02T04:08:59.562Z,99900.25
2023-05-02T04:14:07.756Z,99914.28
2023-05-02T04:19:10.851Z,99918.38
2023-05-02T04:24:14.108Z,99934.31
2023-05-02T04:29:15.904Z,99938.72
2023-05-02T04:34:18.596Z,99942.94
2023-05-02T04:39:21.072Z,99961.97
2023-05-02T04:44:35.095Z,99980.41
2023-05-02T04:49:36.811Z,99981.38
2023-05-02T04:54:38.474Z,99987.13
2023-05-02T04:59:40.152Z,99987.44
2023-05-02T05:04:42.622Z,100004.69
2023-05-02T05:09:44.571Z,100008.78
2023-05-02T05:14:46.466Z,100015.47
2023-05-02T05:19:48.806Z,100028.59
2023-05-02T05:24:54.633Z,100048.25
2023-05-02T05:29:59.472Z,100050.56
2023-05-02T05:35:02.177Z,100043.91
2023-05-02T05:40:04.667Z,100057.66
2023-05-02T05:45:07.233Z,100052.75
2023-05-02T05:50:09.565Z,100062.53
2023-05-02T05:55:12.239Z,100069.28
2023-05-02T06:00:17.956Z,100077.88
2023-05-02T06:05:29.480Z,100091.69
2023-05-02T06:10:32.039Z,100097.88
2023-05-02T06:15:35.297Z,100105.84
2023-05-02T06:20:39.657Z,100117.66
2023-05-02T06:25:41.553Z,100132.59
2023-05-02T06:30:43.728Z,100139.28
2023-05-02T06:35:51.507Z,100151.97
2023-05-02T06:40:53.517Z,100151.94
2023-05-02T06:45:58.827Z,100167.72
2023-05-02T06:51:01.444Z,100175.19
2023-05-02T06:56:03.500Z,100182.44
2023-05-02T07:01:05.227Z,100191.06
2023-05-02T07:06:06.944Z,100196.59
2023-05-02T07:11:08.625Z,100205.91
2023-05-02T07:16:10.419Z,100206.31
2023-05-02T07:21:13.100Z,100223.19
2023-05-02T07:26:14.755Z,100227.84
2023-05-02T07:31:18.702Z,100237.31
2023-05-02T07:36:21.758Z,100244.63
2023-05-02T07:41:23.398Z,100254.84
2023-05-02T07:46:25.077Z,100263.41
2023-05-02T07:51:26.893Z,100271.25
2023-05-02T07:56:28.597Z,100276.47
2023-05-02T08:01:30.172Z,100288.91
2023-05-02T08:06:34.698Z,100297.03
2023-05-02T08:11:36.454Z,100298.06
2023-05-02T08:16:38.172Z,100298.50
2023-05-02T08:21:40.019Z,100311.97
2023-05-02T08:26:41.650Z,100313.53
2023-05-02T08:31:43.449Z,100324.59
2023-05-02T08:36:45.201Z,100323.19
2023-05-02T08:41:46.902Z,100327.66
2023-05-02T08:46:51.030Z,100338.78
2023-05-02T08:51:55.375Z,100337.88
2023-05-02T08:56:59.497Z,100345.09
2023-05-02T09:02:12.256Z,100343.31
2023-05-02T09:07:16.539Z,100355.34
2023-05-02T09:12:25.352Z,100364.66
2023-05-02T09:17:27.005Z,100372.16
2023-05-02T09:22:28.719Z,100379.19
2023-05-02T09:27:30.682Z,100382.91
2023-05-02T09:32:51.044Z,100386.41
2023-05-02T09:37:54.779Z,100388.00
2023-05-02T09:42:56.700Z,100385.50
2023-05-02T09:48:02.413Z,100388.25
2023-05-02T09:53:09.501Z,100389.41
2023-05-02T09:58:25.653Z,100394.72
2023-05-02T10:03:28.916Z,100401.06
2023-05-02T10:08:33.497Z,100401.88
2023-05-02T10:13:39.464Z,100409.03
2023-05-02T10:18:48.429Z,100404.31
2023-05-02T10:23:53.212Z,100416.09
2023-05-02T10:28:56.595Z,100410.03
2023-05-02T10:33:59.906Z,100416.31
2023-05-02T10:39:02.883Z,100414.94
2023-05-02T10:44:07.761Z,100428.75
2023-05-02T10:49:13.733Z,100429.13
2023-05-02T10:54:18.655Z,100430.81
2023-05-02T10:59:28.703Z,100419.50
2023-05-02T11:05:04.210Z,100426.34
2023-05-02T11:10:18.290Z,100424.25
2023-05-02T11:15:28.836Z,100430.53
2023-05-02T11:20:32.308Z,100430.88
2023-05-02T11:25:38.599Z,100434.00
2023-05-02T11:30:45.276Z,100435.75
2023-05-02T11:35:47.962Z,100442.78
2023-05-02T11:41:00.179Z,100436.97
2023-05-02T11:46:02.590Z,100444.84
2023-05-02T11:51:07.043Z,100447.88
2023-05-02T11:56:09.081Z,100450.00
2023-05-02T12:01:15.697Z,100447.00
2023-05-02T12:06:23.383Z,100448.47
2023-05-02T12:11:25.242Z,100449.00
2023-05-02T12:16:26.931Z,100457.38
2023-05-02T12:21:35.754Z,100454.06
2023-05-02T12:26:37.450Z,100454.63
2023-05-02T12:31:39.998Z,100449.00
2023-05-02T12:36:47.600Z,100444.28
2023-05-02T12:41:49.192Z,100452.25
2023-05-02T12:47:00.993Z,100454.31
2023-05-02T12:52:02.839Z,100448.88
2023-05-02T12:57:04.582Z,100444.81
2023-05-02T13:02:06.300Z,100450.34
2023-05-02T13:07:08.044Z,100453.09
2023-05-02T13:12:09.983Z,100455.25
2023-05-02T13:17:12.017Z,100456.09
2023-05-02T13:22:13.753Z,100450.59
2023-05-02T13:27:15.475Z,100456.78
2023-05-02T13:32:17.088Z,100463.84
2023-05-02T13:37:18.713Z,100461.50
2023-05-02T13:42:20.334Z,100455.16
2023-05-02T13:47:22.440Z,100471.06
2023-05-02T13:52:24.058Z,100464.94
2023-05-02T13:57:25.673Z,100466.78
2023-05-02T14:02:27.572Z,100467.97
2023-05-02T14:07:29.570Z,100471.13
2023-05-02T14:12:31.695Z,100470.69
2023-05-02T14:17:33.447Z,100465.56
2023-05-02T14:22:35.017Z,100466.75
2023-05-02T14:27:36.679Z,100464.03
2023-05-02T14:32:38.446Z,100474.44
2023-05-02T14:37:40.197Z,100476.19
2023-05-02T14:42:42.648Z,100486.28
2023-05-02T14:47:44.443Z,100501.91
2023-05-02T14:52:48.971Z,100508.69
2023-05-02T14:57:50.620Z,100516.59
2023-05-02T15:02:52.510Z,100536.47
2023-05-02T15:07:54.768Z,100548.34
2023-05-02T15:12:56.970Z,100550.25
2023-05-02T15:17:58.650Z,100545.19
2023-05-02T15:23:07.346Z,100551.50
2023-05-02T15:28:09.200Z,100553.19
2023-05-02T15:33:12.499Z,100570.16
2023-05-02T15:38:14.330Z,100583.81
2023-05-02T15:43:15.944Z,100575.84
2023-05-02T15:48:20.297Z,100588.06
2023-05-02T15:53:25.281Z,100591.53
2023-05-02T15:58:26.900Z,100595.50
2023-05-02T16:03:32.153Z,100601.41
2023-05-02T16:08:37.082Z,100610.63
2023-05-02T16:13:38.824Z,100615.78
2023-05-02T16:18:44.405Z,100619.88
2023-05-02T16:23:46.240Z,100619.41
2023-05-02T16:28:47.860Z,100625.19
2023-05-02T16:33:50.860Z,100635.72
2023-05-02T16:38:52.468Z,100632.03
2023-05-02T16:43:54.067Z,100636.66
2023-05-02T16:48:55.877Z,100646.00
2023-05-02T16:53:57.507Z,100640.28
2023-05-02T16:58:59.339Z,100648.69
2023-05-02T17:04:01.079Z,100657.16
2023-05-02T17:09:03.735Z,100665.06
2023-05-02T17:14:05.477Z,100668.44
2023-05-02T17:19:07.672Z,100670.13
2023-05-02T17:24:09.396Z,100682.34
2023-05-02T17:29:11.015Z,100693.34
2023-05-02T17:34:12.880Z,100695.72
2023-05-02T17:39:15.896Z,100712.59
2023-05-02T17:44:17.677Z,100717.81
2023-05-02T17:49:19.396Z,100732.22
2023-05-02T17:54:21.206Z,100732.13
2023-05-02T17:59:22.996Z,100739.72
2023-05-02T18:04:25.424Z,100750.56
2023-05-02T18:09:27.064Z,100741.22
2023-05-02T18:14:28.619Z,100750.88
2023-05-02T18:19:30.275Z,100758.13
2023-05-02T18:24:32.712Z,100756.59
2023-05-02T18:29:37.482Z,100769.75
2023-05-02T18:34:39.319Z,100776.66
2023-05-02T18:39:41.071Z,100785.28
2023-05-02T18:44:42.698Z,100783.34
2023-05-02T18:49:44.564Z,100793.78
2023-05-02T18:54:47.549Z,100807.38
2023-05-02T18:59:49.238Z,100802.59
2023-05-02T19:04:53.670Z,100812.59
2023-05-02T19:09:55.330Z,100809.22
2023-05-02T19:14:56.949Z,100803.94
2023-05-02T19:19:58.557Z,100807.88
2023-05-02T19:25:00.854Z,100827.41
2023-05-02T19:30:04.157Z,100833.59
2023-05-02T19:35:07.130Z,100841.31
2023-05-02T19:40:10.816Z,100843.16
2023-05-02T19:45:13.808Z,100841.69
2023-05-02T19:50:15.735Z,100846.13
2023-05-02T19:55:18.458Z,100857.13
2023-05-02T20:00:20.202Z,100860.91
2023-05-02T20:05:21.819Z,100859.47
2023-05-02T20:10:23.509Z,100859.97
2023-05-02T20:15:25.906Z,100866.91
2023-05-02T20:20:28.727Z,100874.34
2023-05-02T20:25:30.386Z,100882.06
2023-05-02T20:30:32.356Z,100895.31
2023-05-02T20:35:34.104Z,100897.16
2023-05-02T20:40:39.205Z,100894.38
2023-05-02T20:45:40.855Z,100891.63
2023-05-02T20:50:42.593Z,100897.88
2023-05-02T20:55:44.188Z,100897.56
2023-05-02T21:00:52.153Z,100907.53
2023-05-02T21:05:56.658Z,100905.66
2023-05-02T21:10:58.299Z,100903.97
2023-05-02T21:15:59.910Z,100909.09
2023-05-02T21:21:01.596Z,100911.22
2023-05-02T21:26:03.951Z,100916.50
2023-05-02T21:31:07.309Z,100912.75
2023-05-02T21:36:09.354Z,100918.72
2023-05-02T21:41:10.965Z,100918.34
2023-05-02T21:46:12.662Z,100923.81
2023-05-02T21:51:14.398Z,100922.28
2023-05-02T21:56:15.998Z,100928.09
2023-05-02T22:01:18.098Z,100928.56
2023-05-02T22:06:19.742Z,100932.22
2023-05-02T22:11:21.793Z,100927.66
2023-05-02T22:16:23.937Z,100932.41
2023-05-02T22:21:25.855Z,100927.00
2023-05-02T22:26:27.484Z,100937.38
2023-05-02T22:31:29.235Z,100942.72
2023-05-02T22:36:31.190Z,100940.41
2023-05-02T22:41:32.768Z,100940.81
2023-05-02T22:46:34.632Z,100943.47
2023-05-02T22:51:39.972Z,100939.78
2023-05-02T22:56:41.629Z,100948.91
2023-05-02T23:01:43.247Z,100949.13
2023-05-02T23:06:45.322Z,100945.31
2023-05-02T23:11:46.922Z,100941.69
2023-05-02T23:16:49.896Z,100940.75
2023-05-02T23:21:51.674Z,100942.84
2023-05-02T23:26:53.342Z,100948.09
2023-05-02T23:31:55.609Z,100960.22
2023-05-02T23:36:57.287Z,100961.88
2023-05-02T23:41:58.966Z,100956.06
2023-05-02T23:47:00.654Z,100964.94
2023-05-02T23:52:02.770Z,100956.19
2023-05-02T23:57:04.548Z,100960.81
